Wedowee, Alabama
Current Conditions -  °F | °C
As of 6:53 PM on Saturday 25 Oct 2014 (Local Time) from KANB Reporting Station
Clear Clear  
Wind Chill: 61°   Ceiling: Unl
Heat Index: 61°   Visibility: 10mi
Dew Point: 55°   Wind: 0mph
Humidity: 81%   Direction: NA
Pressure: 30.05"   Gusts: NA
Location:  33.31°N, 85.48°W
Report Text: KANB 252353Z AUTO 00000KT 10SM CLR 16/13 A3005 RMK AO2 SLP179 T01610128 10244 20161 53004
Loading
Personal Weather Stations






























Interactive Weather Map
Tropical Storm Tracking
New forecast layout! Learn more

10-Day Weather Forecast

Advertisements
Track Severe Weather on mobile